sensor_id;sensor_type;location;lat;lon;timestamp;P1;durP1;ratioP1;P2;durP2;ratioP2
81217;SDS011;70689;52.494;13.420;2023-07-20T00:01:57;0.13;;;0.13;;
81217;SDS011;70689;52.494;13.420;2023-07-20T00:04:23;0.80;;;0.80;;
81217;SDS011;70689;52.494;13.420;2023-07-20T00:06:49;0.52;;;0.45;;
81217;SDS011;70689;52.494;13.420;2023-07-20T00:09:14;0.13;;;0.13;;
81217;SDS011;70689;52.494;13.420;2023-07-20T00:11:47;0.38;;;0.30;;
81217;SDS011;70689;52.494;13.420;2023-07-20T00:14:15;0.30;;;0.30;;
81217;SDS011;70689;52.494;13.420;2023-07-20T00:16:41;1.35;;;0.63;;
81217;SDS011;70689;52.494;13.420;2023-07-20T00:19:07;1.00;;;0.75;;
81217;SDS011;70689;52.494;13.420;2023-07-20T00:21:33;0.30;;;0.30;;
81217;SDS011;70689;52.494;13.420;2023-07-20T00:23:59;0.32;;;0.32;;
81217;SDS011;70689;52.494;13.420;2023-07-20T00:26:24;0.30;;;0.30;;
81217;SDS011;70689;52.494;13.420;2023-07-20T00:28:50;0.20;;;0.20;;
81217;SDS011;70689;52.494;13.420;2023-07-20T00:31:19;0.28;;;0.28;;
81217;SDS011;70689;52.494;13.420;2023-07-20T00:33:44;0.30;;;0.30;;
81217;SDS011;70689;52.494;13.420;2023-07-20T00:36:10;0.35;;;0.35;;
81217;SDS011;70689;52.494;13.420;2023-07-20T00:38:36;0.45;;;0.45;;
81217;SDS011;70689;52.494;13.420;2023-07-20T00:41:02;0.28;;;0.28;;
81217;SDS011;70689;52.494;13.420;2023-07-20T00:43:27;0.20;;;0.20;;
81217;SDS011;70689;52.494;13.420;2023-07-20T00:45:53;0.13;;;0.13;;
81217;SDS011;70689;52.494;13.420;2023-07-20T00:48:19;0.20;;;0.20;;
81217;SDS011;70689;52.494;13.420;2023-07-20T00:50:45;0.20;;;0.20;;
81217;SDS011;70689;52.494;13.420;2023-07-20T00:53:11;0.20;;;0.20;;
81217;SDS011;70689;52.494;13.420;2023-07-20T00:55:37;0.35;;;0.30;;
81217;SDS011;70689;52.494;13.420;2023-07-20T00:58:03;3.67;;;2.38;;
81217;SDS011;70689;52.494;13.420;2023-07-20T01:00:29;6.82;;;3.70;;
81217;SDS011;70689;52.494;13.420;2023-07-20T01:02:55;5.28;;;4.32;;
81217;SDS011;70689;52.494;13.420;2023-07-20T01:05:21;5.30;;;4.50;;
81217;SDS011;70689;52.494;13.420;2023-07-20T01:07:55;8.05;;;4.88;;
81217;SDS011;70689;52.494;13.420;2023-07-20T01:13:56;6.05;;;4.40;;
81217;SDS011;70689;52.494;13.420;2023-07-20T01:16:23;8.68;;;4.68;;
81217;SDS011;70689;52.494;13.420;2023-07-20T01:18:49;6.18;;;4.75;;
81217;SDS011;70689;52.494;13.420;2023-07-20T01:21:18;8.15;;;4.75;;
81217;SDS011;70689;52.494;13.420;2023-07-20T01:32:10;5.55;;;4.82;;
81217;SDS011;70689;52.494;13.420;2023-07-20T01:34:36;6.38;;;5.10;;
81217;SDS011;70689;52.494;13.420;2023-07-20T01:37:05;6.82;;;4.65;;
81217;SDS011;70689;52.494;13.420;2023-07-20T01:39:31;6.70;;;5.22;;
81217;SDS011;70689;52.494;13.420;2023-07-20T01:41:58;7.70;;;5.30;;
81217;SDS011;70689;52.494;13.420;2023-07-20T01:44:24;5.55;;;4.68;;
81217;SDS011;70689;52.494;13.420;2023-07-20T01:46:50;6.20;;;5.07;;
81217;SDS011;70689;52.494;13.420;2023-07-20T01:49:15;6.05;;;5.20;;
81217;SDS011;70689;52.494;13.420;2023-07-20T01:51:41;6.43;;;5.20;;
81217;SDS011;70689;52.494;13.420;2023-07-20T01:54:07;6.75;;;4.90;;
81217;SDS011;70689;52.494;13.420;2023-07-20T01:56:32;7.32;;;4.95;;
81217;SDS011;70689;52.494;13.420;2023-07-20T01:58:58;6.30;;;5.07;;
81217;SDS011;70689;52.494;13.420;2023-07-20T02:01:24;5.10;;;4.60;;
81217;SDS011;70689;52.494;13.420;2023-07-20T02:03:50;6.28;;;5.25;;
81217;SDS011;70689;52.494;13.420;2023-07-20T02:06:15;6.68;;;5.30;;
81217;SDS011;70689;52.494;13.420;2023-07-20T02:08:41;8.13;;;5.82;;
81217;SDS011;70689;52.494;13.420;2023-07-20T02:11:07;7.85;;;6.00;;
81217;SDS011;70689;52.494;13.420;2023-07-20T02:13:34;8.40;;;6.20;;
81217;SDS011;70689;52.494;13.420;2023-07-20T02:16:01;6.90;;;6.15;;
81217;SDS011;70689;52.494;13.420;2023-07-20T02:18:26;7.35;;;5.88;;
81217;SDS011;70689;52.494;13.420;2023-07-20T02:20:53;7.70;;;6.32;;
81217;SDS011;70689;52.494;13.420;2023-07-20T02:23:19;6.97;;;6.30;;
81217;SDS011;70689;52.494;13.420;2023-07-20T02:25:45;8.30;;;6.15;;
81217;SDS011;70689;52.494;13.420;2023-07-20T02:28:12;8.15;;;6.07;;
81217;SDS011;70689;52.494;13.420;2023-07-20T02:30:39;10.02;;;6.30;;
81217;SDS011;70689;52.494;13.420;2023-07-20T02:33:05;8.50;;;6.22;;
81217;SDS011;70689;52.494;13.420;2023-07-20T02:35:31;7.93;;;6.65;;
81217;SDS011;70689;52.494;13.420;2023-07-20T02:37:57;7.65;;;6.75;;
81217;SDS011;70689;52.494;13.420;2023-07-20T02:40:23;7.88;;;6.55;;
81217;SDS011;70689;52.494;13.420;2023-07-20T02:42:48;8.20;;;6.40;;
81217;SDS011;70689;52.494;13.420;2023-07-20T02:45:14;9.20;;;6.45;;
81217;SDS011;70689;52.494;13.420;2023-07-20T02:47:40;8.35;;;6.95;;
81217;SDS011;70689;52.494;13.420;2023-07-20T02:50:07;7.85;;;6.97;;
81217;SDS011;70689;52.494;13.420;2023-07-20T02:52:33;7.38;;;6.55;;
81217;SDS011;70689;52.494;13.420;2023-07-20T02:54:59;8.32;;;6.82;;
81217;SDS011;70689;52.494;13.420;2023-07-20T02:57:25;11.55;;;7.10;;
81217;SDS011;70689;52.494;13.420;2023-07-20T02:59:50;7.68;;;6.68;;
81217;SDS011;70689;52.494;13.420;2023-07-20T03:02:16;8.60;;;7.70;;
81217;SDS011;70689;52.494;13.420;2023-07-20T03:04:42;10.02;;;7.80;;
81217;SDS011;70689;52.494;13.420;2023-07-20T03:07:07;9.88;;;8.35;;
81217;SDS011;70689;52.494;13.420;2023-07-20T03:09:33;9.13;;;8.10;;
81217;SDS011;70689;52.494;13.420;2023-07-20T03:11:58;9.52;;;8.48;;
81217;SDS011;70689;52.494;13.420;2023-07-20T03:14:24;10.55;;;9.38;;
81217;SDS011;70689;52.494;13.420;2023-07-20T03:16:50;11.13;;;9.85;;
81217;SDS011;70689;52.494;13.420;2023-07-20T03:19:15;11.23;;;9.43;;
81217;SDS011;70689;52.494;13.420;2023-07-20T03:21:41;10.23;;;8.35;;
81217;SDS011;70689;52.494;13.420;2023-07-20T03:24:07;12.77;;;9.05;;
81217;SDS011;70689;52.494;13.420;2023-07-20T03:26:34;12.57;;;9.07;;
81217;SDS011;70689;52.494;13.420;2023-07-20T03:29:00;11.63;;;9.13;;
81217;SDS011;70689;52.494;13.420;2023-07-20T03:31:25;10.38;;;8.73;;
81217;SDS011;70689;52.494;13.420;2023-07-20T03:33:51;11.07;;;9.48;;
81217;SDS011;70689;52.494;13.420;2023-07-20T03:36:17;11.90;;;10.25;;
81217;SDS011;70689;52.494;13.420;2023-07-20T03:38:43;14.20;;;10.05;;
81217;SDS011;70689;52.494;13.420;2023-07-20T03:41:08;12.13;;;10.52;;
81217;SDS011;70689;52.494;13.420;2023-07-20T03:43:34;12.15;;;10.52;;
81217;SDS011;70689;52.494;13.420;2023-07-20T03:46:00;11.65;;;10.32;;
81217;SDS011;70689;52.494;13.420;2023-07-20T03:48:25;13.68;;;10.82;;
81217;SDS011;70689;52.494;13.420;2023-07-20T03:50:52;13.45;;;10.52;;
81217;SDS011;70689;52.494;13.420;2023-07-20T03:53:19;13.25;;;11.50;;
81217;SDS011;70689;52.494;13.420;2023-07-20T03:55:45;13.68;;;12.27;;
81217;SDS011;70689;52.494;13.420;2023-07-20T03:58:12;15.52;;;12.20;;
81217;SDS011;70689;52.494;13.420;2023-07-20T04:00:38;13.32;;;12.05;;
81217;SDS011;70689;52.494;13.420;2023-07-20T04:03:04;15.70;;;12.68;;
81217;SDS011;70689;52.494;13.420;2023-07-20T04:05:30;11.15;;;9.35;;
81217;SDS011;70689;52.494;13.420;2023-07-20T04:07:56;9.38;;;8.43;;
81217;SDS011;70689;52.494;13.420;2023-07-20T04:10:22;9.90;;;8.48;;
81217;SDS011;70689;52.494;13.420;2023-07-20T04:12:47;9.75;;;7.70;;
81217;SDS011;70689;52.494;13.420;2023-07-20T04:15:13;10.88;;;8.13;;
81217;SDS011;70689;52.494;13.420;2023-07-20T04:17:40;9.45;;;7.60;;
81217;SDS011;70689;52.494;13.420;2023-07-20T04:20:06;11.70;;;7.45;;
81217;SDS011;70689;52.494;13.420;2023-07-20T04:22:32;12.32;;;7.57;;
81217;SDS011;70689;52.494;13.420;2023-07-20T04:24:58;9.65;;;7.18;;
81217;SDS011;70689;52.494;13.420;2023-07-20T04:27:24;8.30;;;7.00;;
81217;SDS011;70689;52.494;13.420;2023-07-20T04:29:49;8.40;;;7.25;;
81217;SDS011;70689;52.494;13.420;2023-07-20T04:32:15;8.77;;;6.97;;
81217;SDS011;70689;52.494;13.420;2023-07-20T04:34:41;7.80;;;6.70;;
81217;SDS011;70689;52.494;13.420;2023-07-20T04:37:07;13.10;;;8.65;;
81217;SDS011;70689;52.494;13.420;2023-07-20T04:39:33;8.10;;;7.30;;
81217;SDS011;70689;52.494;13.420;2023-07-20T04:41:59;9.75;;;7.75;;
81217;SDS011;70689;52.494;13.420;2023-07-20T04:44:25;9.07;;;7.03;;
81217;SDS011;70689;52.494;13.420;2023-07-20T04:46:50;8.60;;;7.65;;
81217;SDS011;70689;52.494;13.420;2023-07-20T04:49:16;8.30;;;7.40;;
81217;SDS011;70689;52.494;13.420;2023-07-20T04:51:42;8.95;;;7.32;;
81217;SDS011;70689;52.494;13.420;2023-07-20T04:54:07;8.70;;;7.20;;
81217;SDS011;70689;52.494;13.420;2023-07-20T04:56:33;8.57;;;7.68;;
81217;SDS011;70689;52.494;13.420;2023-07-20T04:58:59;8.45;;;7.13;;
81217;SDS011;70689;52.494;13.420;2023-07-20T05:01:25;7.95;;;7.15;;
81217;SDS011;70689;52.494;13.420;2023-07-20T05:03:51;8.55;;;7.00;;
81217;SDS011;70689;52.494;13.420;2023-07-20T05:06:17;8.40;;;7.35;;
81217;SDS011;70689;52.494;13.420;2023-07-20T05:08:43;8.98;;;7.82;;
81217;SDS011;70689;52.494;13.420;2023-07-20T05:11:10;10.38;;;7.68;;
81217;SDS011;70689;52.494;13.420;2023-07-20T05:13:36;9.10;;;7.95;;
81217;SDS011;70689;52.494;13.420;2023-07-20T05:16:02;7.90;;;7.00;;
81217;SDS011;70689;52.494;13.420;2023-07-20T05:18:27;6.97;;;6.28;;
81217;SDS011;70689;52.494;13.420;2023-07-20T05:20:53;8.02;;;6.25;;
81217;SDS011;70689;52.494;13.420;2023-07-20T05:23:20;7.05;;;6.13;;
81217;SDS011;70689;52.494;13.420;2023-07-20T05:25:46;6.82;;;6.10;;
81217;SDS011;70689;52.494;13.420;2023-07-20T05:28:12;10.20;;;6.20;;
81217;SDS011;70689;52.494;13.420;2023-07-20T05:30:38;6.80;;;6.05;;
81217;SDS011;70689;52.494;13.420;2023-07-20T05:33:05;6.47;;;5.57;;
81217;SDS011;70689;52.494;13.420;2023-07-20T05:35:30;7.30;;;6.50;;
81217;SDS011;70689;52.494;13.420;2023-07-20T05:37:56;6.13;;;5.40;;
81217;SDS011;70689;52.494;13.420;2023-07-20T05:40:22;6.38;;;5.53;;
81217;SDS011;70689;52.494;13.420;2023-07-20T05:42:48;7.18;;;5.47;;
81217;SDS011;70689;52.494;13.420;2023-07-20T05:45:17;7.10;;;5.30;;
81217;SDS011;70689;52.494;13.420;2023-07-20T05:47:43;7.85;;;5.32;;
81217;SDS011;70689;52.494;13.420;2023-07-20T05:50:09;6.97;;;5.20;;
81217;SDS011;70689;52.494;13.420;2023-07-20T05:52:36;6.53;;;5.38;;
81217;SDS011;70689;52.494;13.420;2023-07-20T05:55:04;7.47;;;5.78;;
81217;SDS011;70689;52.494;13.420;2023-07-20T05:57:30;7.55;;;5.50;;
81217;SDS011;70689;52.494;13.420;2023-07-20T05:59:56;6.75;;;5.68;;
81217;SDS011;70689;52.494;13.420;2023-07-20T06:02:21;8.10;;;6.03;;
81217;SDS011;70689;52.494;13.420;2023-07-20T06:04:47;6.13;;;5.50;;
81217;SDS011;70689;52.494;13.420;2023-07-20T06:07:13;7.80;;;6.30;;
81217;SDS011;70689;52.494;13.420;2023-07-20T06:09:39;7.13;;;5.93;;
81217;SDS011;70689;52.494;13.420;2023-07-20T06:12:05;7.93;;;6.43;;
81217;SDS011;70689;52.494;13.420;2023-07-20T06:14:31;8.27;;;6.88;;
81217;SDS011;70689;52.494;13.420;2023-07-20T06:16:56;8.70;;;6.43;;
81217;SDS011;70689;52.494;13.420;2023-07-20T06:19:22;7.05;;;6.18;;
81217;SDS011;70689;52.494;13.420;2023-07-20T06:21:48;7.40;;;6.20;;
81217;SDS011;70689;52.494;13.420;2023-07-20T06:24:14;10.25;;;6.65;;
81217;SDS011;70689;52.494;13.420;2023-07-20T06:26:41;11.43;;;6.70;;
81217;SDS011;70689;52.494;13.420;2023-07-20T06:29:06;8.55;;;7.28;;
81217;SDS011;70689;52.494;13.420;2023-07-20T06:31:34;12.00;;;7.63;;
81217;SDS011;70689;52.494;13.420;2023-07-20T06:34:00;10.32;;;7.15;;
81217;SDS011;70689;52.494;13.420;2023-07-20T06:36:26;8.48;;;6.80;;
81217;SDS011;70689;52.494;13.420;2023-07-20T06:38:52;7.00;;;6.30;;
81217;SDS011;70689;52.494;13.420;2023-07-20T06:41:18;7.32;;;5.55;;
81217;SDS011;70689;52.494;13.420;2023-07-20T06:43:44;8.90;;;5.32;;
81217;SDS011;70689;52.494;13.420;2023-07-20T06:46:10;7.43;;;5.38;;
81217;SDS011;70689;52.494;13.420;2023-07-20T06:48:36;6.43;;;5.25;;
81217;SDS011;70689;52.494;13.420;2023-07-20T06:51:02;6.22;;;4.47;;
81217;SDS011;70689;52.494;13.420;2023-07-20T06:53:28;8.38;;;4.20;;
81217;SDS011;70689;52.494;13.420;2023-07-20T06:55:54;6.60;;;4.68;;
81217;SDS011;70689;52.494;13.420;2023-07-20T06:58:22;6.30;;;4.25;;
81217;SDS011;70689;52.494;13.420;2023-07-20T07:00:51;4.45;;;3.17;;
81217;SDS011;70689;52.494;13.420;2023-07-20T07:03:16;5.90;;;3.28;;
81217;SDS011;70689;52.494;13.420;2023-07-20T07:05:43;4.85;;;3.00;;
81217;SDS011;70689;52.494;13.420;2023-07-20T07:08:10;3.67;;;2.78;;
81217;SDS011;70689;52.494;13.420;2023-07-20T07:10:36;4.78;;;2.40;;
81217;SDS011;70689;52.494;13.420;2023-07-20T07:13:02;4.03;;;2.60;;
81217;SDS011;70689;52.494;13.420;2023-07-20T07:15:28;2.83;;;2.30;;
81217;SDS011;70689;52.494;13.420;2023-07-20T07:17:54;2.33;;;2.10;;
81217;SDS011;70689;52.494;13.420;2023-07-20T07:20:20;4.22;;;2.72;;
81217;SDS011;70689;52.494;13.420;2023-07-20T07:22:50;3.70;;;2.10;;
81217;SDS011;70689;52.494;13.420;2023-07-20T07:25:17;3.35;;;2.30;;
81217;SDS011;70689;52.494;13.420;2023-07-20T07:27:42;3.88;;;2.50;;
81217;SDS011;70689;52.494;13.420;2023-07-20T07:30:08;2.13;;;1.73;;
81217;SDS011;70689;52.494;13.420;2023-07-20T07:32:34;2.10;;;1.85;;
81217;SDS011;70689;52.494;13.420;2023-07-20T07:35:00;2.50;;;1.73;;
81217;SDS011;70689;52.494;13.420;2023-07-20T07:37:26;2.65;;;1.40;;
81217;SDS011;70689;52.494;13.420;2023-07-20T07:39:52;2.22;;;1.30;;
81217;SDS011;70689;52.494;13.420;2023-07-20T07:42:17;2.50;;;1.40;;
81217;SDS011;70689;52.494;13.420;2023-07-20T07:44:44;1.70;;;1.60;;
81217;SDS011;70689;52.494;13.420;2023-07-20T07:47:10;1.60;;;1.50;;
81217;SDS011;70689;52.494;13.420;2023-07-20T07:49:36;3.05;;;1.60;;
81217;SDS011;70689;52.494;13.420;2023-07-20T07:52:01;3.53;;;1.70;;
81217;SDS011;70689;52.494;13.420;2023-07-20T07:54:27;3.03;;;1.88;;
81217;SDS011;70689;52.494;13.420;2023-07-20T07:56:54;1.65;;;1.40;;
81217;SDS011;70689;52.494;13.420;2023-07-20T07:59:19;2.15;;;1.45;;
81217;SDS011;70689;52.494;13.420;2023-07-20T08:01:45;2.75;;;1.92;;
81217;SDS011;70689;52.494;13.420;2023-07-20T08:04:11;4.05;;;1.52;;
81217;SDS011;70689;52.494;13.420;2023-07-20T08:06:36;1.80;;;1.55;;
81217;SDS011;70689;52.494;13.420;2023-07-20T08:09:02;1.30;;;1.10;;
81217;SDS011;70689;52.494;13.420;2023-07-20T08:11:28;4.07;;;1.00;;
81217;SDS011;70689;52.494;13.420;2023-07-20T08:13:55;1.65;;;1.10;;
81217;SDS011;70689;52.494;13.420;2023-07-20T08:16:21;2.05;;;1.10;;
81217;SDS011;70689;52.494;13.420;2023-07-20T08:18:47;1.23;;;1.00;;
81217;SDS011;70689;52.494;13.420;2023-07-20T08:21:13;1.40;;;1.30;;
81217;SDS011;70689;52.494;13.420;2023-07-20T08:23:38;1.30;;;1.20;;
81217;SDS011;70689;52.494;13.420;2023-07-20T08:26:04;2.60;;;1.27;;
81217;SDS011;70689;52.494;13.420;2023-07-20T08:28:30;1.70;;;1.23;;
81217;SDS011;70689;52.494;13.420;2023-07-20T08:30:56;3.10;;;1.40;;
81217;SDS011;70689;52.494;13.420;2023-07-20T08:33:22;1.73;;;1.38;;
81217;SDS011;70689;52.494;13.420;2023-07-20T08:35:48;4.28;;;2.05;;
81217;SDS011;70689;52.494;13.420;2023-07-20T08:38:14;5.93;;;1.73;;
81217;SDS011;70689;52.494;13.420;2023-07-20T08:40:40;2.30;;;1.50;;
81217;SDS011;70689;52.494;13.420;2023-07-20T08:43:08;3.42;;;1.38;;
81217;SDS011;70689;52.494;13.420;2023-07-20T08:45:38;2.55;;;1.48;;
81217;SDS011;70689;52.494;13.420;2023-07-20T08:48:05;3.28;;;2.13;;
81217;SDS011;70689;52.494;13.420;2023-07-20T08:50:32;2.85;;;1.30;;
81217;SDS011;70689;52.494;13.420;2023-07-20T08:52:59;1.30;;;1.10;;
81217;SDS011;70689;52.494;13.420;2023-07-20T08:55:27;2.05;;;1.10;;
81217;SDS011;70689;52.494;13.420;2023-07-20T08:57:56;1.80;;;1.20;;
81217;SDS011;70689;52.494;13.420;2023-07-20T09:00:24;1.92;;;1.20;;
81217;SDS011;70689;52.494;13.420;2023-07-20T09:02:52;1.83;;;1.40;;
81217;SDS011;70689;52.494;13.420;2023-07-20T09:05:22;1.17;;;1.00;;
81217;SDS011;70689;52.494;13.420;2023-07-20T09:07:49;1.02;;;0.93;;
81217;SDS011;70689;52.494;13.420;2023-07-20T09:10:16;3.05;;;1.23;;
81217;SDS011;70689;52.494;13.420;2023-07-20T09:12:42;3.78;;;1.20;;
81217;SDS011;70689;52.494;13.420;2023-07-20T09:15:09;1.50;;;1.08;;
81217;SDS011;70689;52.494;13.420;2023-07-20T09:17:36;1.75;;;1.00;;
81217;SDS011;70689;52.494;13.420;2023-07-20T09:20:05;0.98;;;0.98;;
81217;SDS011;70689;52.494;13.420;2023-07-20T09:22:35;2.47;;;0.85;;
81217;SDS011;70689;52.494;13.420;2023-07-20T09:25:05;4.80;;;0.90;;
81217;SDS011;70689;52.494;13.420;2023-07-20T09:27:36;3.50;;;1.00;;
81217;SDS011;70689;52.494;13.420;2023-07-20T09:30:06;1.60;;;1.10;;
81217;SDS011;70689;52.494;13.420;2023-07-20T09:32:54;3.15;;;1.00;;
81217;SDS011;70689;52.494;13.420;2023-07-20T09:35:20;2.40;;;0.80;;
81217;SDS011;70689;52.494;13.420;2023-07-20T09:37:47;1.05;;;0.90;;
81217;SDS011;70689;52.494;13.420;2023-07-20T09:40:16;1.48;;;1.00;;
81217;SDS011;70689;52.494;13.420;2023-07-20T09:42:42;2.03;;;1.30;;
81217;SDS011;70689;52.494;13.420;2023-07-20T09:45:08;1.45;;;1.20;;
81217;SDS011;70689;52.494;13.420;2023-07-20T09:47:35;1.00;;;0.90;;
81217;SDS011;70689;52.494;13.420;2023-07-20T09:50:03;1.20;;;0.90;;
81217;SDS011;70689;52.494;13.420;2023-07-20T09:52:29;1.95;;;1.02;;
81217;SDS011;70689;52.494;13.420;2023-07-20T09:54:55;1.05;;;0.93;;
81217;SDS011;70689;52.494;13.420;2023-07-20T09:57:22;1.77;;;0.85;;
81217;SDS011;70689;52.494;13.420;2023-07-20T09:59:48;1.85;;;1.00;;
81217;SDS011;70689;52.494;13.420;2023-07-20T10:02:22;0.88;;;0.88;;
81217;SDS011;70689;52.494;13.420;2023-07-20T10:04:55;2.33;;;1.35;;
81217;SDS011;70689;52.494;13.420;2023-07-20T10:07:23;1.38;;;1.10;;
81217;SDS011;70689;52.494;13.420;2023-07-20T10:09:53;4.43;;;1.33;;
81217;SDS011;70689;52.494;13.420;2023-07-20T10:12:22;2.42;;;1.05;;
81217;SDS011;70689;52.494;13.420;2023-07-20T10:15:10;4.85;;;2.50;;
81217;SDS011;70689;52.494;13.420;2023-07-20T10:17:40;3.78;;;1.80;;
81217;SDS011;70689;52.494;13.420;2023-07-20T10:20:29;6.60;;;1.80;;
81217;SDS011;70689;52.494;13.420;2023-07-20T10:22:56;1.40;;;1.27;;
81217;SDS011;70689;52.494;13.420;2023-07-20T10:25:23;1.77;;;1.38;;
81217;SDS011;70689;52.494;13.420;2023-07-20T10:27:49;2.35;;;1.23;;
81217;SDS011;70689;52.494;13.420;2023-07-20T10:30:16;2.92;;;1.02;;
81217;SDS011;70689;52.494;13.420;2023-07-20T10:32:46;2.72;;;1.30;;
81217;SDS011;70689;52.494;13.420;2023-07-20T10:35:13;1.10;;;1.10;;
81217;SDS011;70689;52.494;13.420;2023-07-20T10:40:29;2.95;;;1.30;;
81217;SDS011;70689;52.494;13.420;2023-07-20T10:43:14;1.50;;;1.25;;
81217;SDS011;70689;52.494;13.420;2023-07-20T10:45:50;1.60;;;1.20;;
81217;SDS011;70689;52.494;13.420;2023-07-20T10:48:21;2.47;;;1.13;;
81217;SDS011;70689;52.494;13.420;2023-07-20T10:53:36;2.20;;;1.30;;
81217;SDS011;70689;52.494;13.420;2023-07-20T10:56:11;2.10;;;1.50;;
81217;SDS011;70689;52.494;13.420;2023-07-20T10:58:39;8.43;;;1.70;;
81217;SDS011;70689;52.494;13.420;2023-07-20T11:01:06;3.13;;;1.52;;
81217;SDS011;70689;52.494;13.420;2023-07-20T11:03:33;4.18;;;1.38;;
81217;SDS011;70689;52.494;13.420;2023-07-20T11:06:28;1.88;;;1.20;;
81217;SDS011;70689;52.494;13.420;2023-07-20T11:08:49;2.58;;;1.27;;
81217;SDS011;70689;52.494;13.420;2023-07-20T11:11:41;1.95;;;1.30;;
81217;SDS011;70689;52.494;13.420;2023-07-20T11:14:09;1.80;;;1.50;;
81217;SDS011;70689;52.494;13.420;2023-07-20T11:16:45;1.77;;;1.38;;
81217;SDS011;70689;52.494;13.420;2023-07-20T11:19:18;3.33;;;1.17;;
81217;SDS011;70689;52.494;13.420;2023-07-20T11:21:45;1.60;;;1.27;;
81217;SDS011;70689;52.494;13.420;2023-07-20T11:24:12;3.13;;;1.10;;
81217;SDS011;70689;52.494;13.420;2023-07-20T11:26:48;3.53;;;1.50;;
81217;SDS011;70689;52.494;13.420;2023-07-20T11:29:16;2.40;;;1.50;;
81217;SDS011;70689;52.494;13.420;2023-07-20T11:31:43;1.65;;;1.20;;
81217;SDS011;70689;52.494;13.420;2023-07-20T11:34:10;4.22;;;1.38;;
81217;SDS011;70689;52.494;13.420;2023-07-20T11:36:39;1.20;;;1.10;;
81217;SDS011;70689;52.494;13.420;2023-07-20T11:39:06;1.67;;;1.20;;
81217;SDS011;70689;52.494;13.420;2023-07-20T11:41:36;2.15;;;1.30;;
81217;SDS011;70689;52.494;13.420;2023-07-20T11:44:03;3.65;;;1.10;;
81217;SDS011;70689;52.494;13.420;2023-07-20T11:46:31;1.33;;;0.90;;
81217;SDS011;70689;52.494;13.420;2023-07-20T11:49:00;1.20;;;0.85;;
81217;SDS011;70689;52.494;13.420;2023-07-20T11:51:27;1.33;;;0.90;;
81217;SDS011;70689;52.494;13.420;2023-07-20T11:53:54;1.88;;;1.00;;
81217;SDS011;70689;52.494;13.420;2023-07-20T11:56:20;1.92;;;1.10;;
81217;SDS011;70689;52.494;13.420;2023-07-20T11:58:47;0.85;;;0.82;;
81217;SDS011;70689;52.494;13.420;2023-07-20T12:01:13;1.48;;;1.00;;
81217;SDS011;70689;52.494;13.420;2023-07-20T12:03:39;0.80;;;0.80;;
81217;SDS011;70689;52.494;13.420;2023-07-20T12:06:07;2.15;;;0.80;;
81217;SDS011;70689;52.494;13.420;2023-07-20T12:08:39;0.80;;;0.80;;
81217;SDS011;70689;52.494;13.420;2023-07-20T12:11:09;1.17;;;0.90;;
81217;SDS011;70689;52.494;13.420;2023-07-20T12:13:44;1.83;;;0.88;;
81217;SDS011;70689;52.494;13.420;2023-07-20T12:16:13;3.67;;;2.30;;
81217;SDS011;70689;52.494;13.420;2023-07-20T12:18:43;2.75;;;1.00;;
81217;SDS011;70689;52.494;13.420;2023-07-20T12:21:09;1.48;;;0.98;;
81217;SDS011;70689;52.494;13.420;2023-07-20T12:23:38;1.48;;;0.90;;
81217;SDS011;70689;52.494;13.420;2023-07-20T12:26:08;2.65;;;2.00;;
81217;SDS011;70689;52.494;13.420;2023-07-20T12:28:41;1.20;;;0.93;;
81217;SDS011;70689;52.494;13.420;2023-07-20T12:31:10;3.60;;;1.00;;
81217;SDS011;70689;52.494;13.420;2023-07-20T12:33:38;4.93;;;1.00;;
81217;SDS011;70689;52.494;13.420;2023-07-20T12:36:04;1.42;;;0.70;;
81217;SDS011;70689;52.494;13.420;2023-07-20T12:38:30;3.42;;;1.30;;
81217;SDS011;70689;52.494;13.420;2023-07-20T12:40:56;0.93;;;0.75;;
81217;SDS011;70689;52.494;13.420;2023-07-20T12:43:23;1.52;;;0.90;;
81217;SDS011;70689;52.494;13.420;2023-07-20T12:45:49;0.85;;;0.60;;
81217;SDS011;70689;52.494;13.420;2023-07-20T12:48:15;1.88;;;0.88;;
81217;SDS011;70689;52.494;13.420;2023-07-20T12:50:40;1.63;;;0.90;;
81217;SDS011;70689;52.494;13.420;2023-07-20T12:53:06;1.20;;;0.85;;
81217;SDS011;70689;52.494;13.420;2023-07-20T12:57:58;1.10;;;0.73;;
81217;SDS011;70689;52.494;13.420;2023-07-20T13:00:24;1.40;;;0.90;;
81217;SDS011;70689;52.494;13.420;2023-07-20T13:02:50;1.40;;;0.82;;
81217;SDS011;70689;52.494;13.420;2023-07-20T13:05:16;1.85;;;0.57;;
81217;SDS011;70689;52.494;13.420;2023-07-20T13:07:42;1.92;;;0.70;;
81217;SDS011;70689;52.494;13.420;2023-07-20T13:10:09;2.03;;;0.95;;
81217;SDS011;70689;52.494;13.420;2023-07-20T13:12:36;1.30;;;0.60;;
81217;SDS011;70689;52.494;13.420;2023-07-20T13:15:03;1.40;;;1.30;;
81217;SDS011;70689;52.494;13.420;2023-07-20T13:17:32;5.25;;;1.85;;
81217;SDS011;70689;52.494;13.420;2023-07-20T13:20:02;1.80;;;0.90;;
81217;SDS011;70689;52.494;13.420;2023-07-20T13:22:31;1.70;;;0.90;;
81217;SDS011;70689;52.494;13.420;2023-07-20T13:24:57;1.80;;;0.90;;
81217;SDS011;70689;52.494;13.420;2023-07-20T13:27:23;1.20;;;0.80;;
81217;SDS011;70689;52.494;13.420;2023-07-20T13:29:51;1.25;;;0.90;;
81217;SDS011;70689;52.494;13.420;2023-07-20T13:32:17;2.15;;;1.20;;
81217;SDS011;70689;52.494;13.420;2023-07-20T13:34:45;0.80;;;0.60;;
81217;SDS011;70689;52.494;13.420;2023-07-20T13:37:11;4.90;;;3.10;;
81217;SDS011;70689;52.494;13.420;2023-07-20T13:39:38;2.50;;;0.80;;
81217;SDS011;70689;52.494;13.420;2023-07-20T13:42:04;0.82;;;0.80;;
81217;SDS011;70689;52.494;13.420;2023-07-20T13:44:33;3.05;;;1.30;;
81217;SDS011;70689;52.494;13.420;2023-07-20T13:47:00;2.40;;;0.98;;
81217;SDS011;70689;52.494;13.420;2023-07-20T13:49:26;2.15;;;1.30;;
81217;SDS011;70689;52.494;13.420;2023-07-20T13:51:52;1.95;;;0.90;;
81217;SDS011;70689;52.494;13.420;2023-07-20T13:54:18;1.17;;;0.82;;
81217;SDS011;70689;52.494;13.420;2023-07-20T13:56:44;3.67;;;1.38;;
81217;SDS011;70689;52.494;13.420;2023-07-20T13:59:09;3.50;;;2.00;;
81217;SDS011;70689;52.494;13.420;2023-07-20T14:01:35;5.18;;;2.10;;
81217;SDS011;70689;52.494;13.420;2023-07-20T14:04:01;3.70;;;2.00;;
81217;SDS011;70689;52.494;13.420;2023-07-20T14:06:29;1.08;;;0.98;;
81217;SDS011;70689;52.494;13.420;2023-07-20T14:08:55;4.00;;;0.98;;
81217;SDS011;70689;52.494;13.420;2023-07-20T14:11:22;1.63;;;1.00;;
81217;SDS011;70689;52.494;13.420;2023-07-20T14:13:49;1.83;;;1.20;;
81217;SDS011;70689;52.494;13.420;2023-07-20T14:16:16;2.83;;;0.73;;
81217;SDS011;70689;52.494;13.420;2023-07-20T14:18:41;2.53;;;1.00;;
81217;SDS011;70689;52.494;13.420;2023-07-20T14:21:07;0.80;;;0.80;;
81217;SDS011;70689;52.494;13.420;2023-07-20T14:23:33;2.28;;;0.90;;
81217;SDS011;70689;52.494;13.420;2023-07-20T14:25:59;1.42;;;1.20;;
81217;SDS011;70689;52.494;13.420;2023-07-20T14:28:25;1.67;;;1.05;;
81217;SDS011;70689;52.494;13.420;2023-07-20T14:30:50;1.98;;;1.55;;
81217;SDS011;70689;52.494;13.420;2023-07-20T14:33:16;1.50;;;1.25;;
81217;SDS011;70689;52.494;13.420;2023-07-20T14:35:42;0.93;;;0.80;;
81217;SDS011;70689;52.494;13.420;2023-07-20T14:38:07;2.85;;;0.90;;
81217;SDS011;70689;52.494;13.420;2023-07-20T14:40:33;1.10;;;0.77;;
81217;SDS011;70689;52.494;13.420;2023-07-20T14:42:58;5.00;;;1.35;;
81217;SDS011;70689;52.494;13.420;2023-07-20T14:45:26;2.10;;;1.75;;
81217;SDS011;70689;52.494;13.420;2023-07-20T14:47:52;2.75;;;1.30;;
81217;SDS011;70689;52.494;13.420;2023-07-20T14:50:19;2.45;;;1.30;;
81217;SDS011;70689;52.494;13.420;2023-07-20T14:52:45;1.17;;;1.00;;